Palau International Airport

PTRO · Airai, Palau

METAR historie PTRO · Palau International Airport

Hieronder zie je METAR's van de afgelopen dagen. Kies een jaar om door oudere METAR's te bladeren, vanaf het jaar 2007.

15 juli 2024

Tijd Code Weer Temp. Zicht Plafond Wind METAR/SPECI
07:50
V
27 °C 24 km 12.000 ft 360° 360° 0 kt METAR PTRO 142250Z 00000KT 15SM FEW010 SCT016TCU BKN120 OVC300 27/26 A2980 RMK TCU NE SE AND W
06:50
V
26 °C 24 km 12.000 ft 360° 360° 0 kt METAR PTRO 142150Z 00000KT 15SM FEW010 SCT016TCU BKN120 OVC300 26/25 A2979
05:50
V
24 °C 24 km 11.000 ft 320° 320° 3 kt METAR PTRO 142050Z 32003KT 15SM FEW009 SCT014TCU BKN110 BKN290 24/23 A2977 RMK TCU E AND S
04:50
V
24 °C 24 km - 360° 360° 0 kt METAR PTRO 141950Z 00000KT 15SM FEW014 SCT110 SCT290 24/23 A2976
03:50
V
24 °C 24 km 29.000 ft 350° 350° 3 kt METAR PTRO 141850Z 35003KT 15SM SCT014 BKN290 24/23 A2975
02:50
V
24 °C 24 km 29.000 ft 360° 360° 3 kt METAR PTRO 141750Z 36003KT 15SM SCT014 SCT110 BKN290 24/23 A2975
01:50
V
24 °C 24 km 12.000 ft 030° 030° 3 kt METAR PTRO 141650Z 03003KT 15SM SCT015 BKN120 BKN290 24/23 A2975
00:50
V
25 °C 24 km 12.000 ft 360° 360° 0 kt METAR PTRO 141550Z 00000KT 15SM SCT015 BKN120 BKN290 25/23 A2977

14 juli 2024

Tijd Code Weer Temp. Zicht Plafond Wind METAR/SPECI
23:50
V
25 °C 21 km 11.000 ft 360° 360° 0 kt METAR PTRO 141450Z 00000KT 13SM SCT015 BKN110 BKN290 25/24 A2979 RMK CB DSNT ALQDS
22:50
V
25 °C 21 km 11.000 ft 360° 360° 0 kt METAR PTRO 141350Z 00000KT 13SM FEW009 SCT015CB BKN110 OVC290 25/24 A2980 RMK CB ALQDS
21:50
V
26 °C 19 km 11.000 ft 360° 360° 0 kt METAR PTRO 141250Z 00000KT 12SM FEW009 SCT015CB BKN110 BKN290 26/24 A2981 RMK CB ALQDS
20:50
V
26 °C 19 km 11.000 ft 360° 360° 0 kt METAR PTRO 141150Z 00000KT 12SM FEW009 SCT015CB BKN110 BKN290 26/24 A2981 RMK CB ALQDS
19:50
M
26 °C 16 km 1.500 ft 360° 360° 0 kt METAR PTRO 141050Z 00000KT 10SM -RA FEW009 BKN015CB BKN110 OVC290 26/24 A2980 RMK CB ALQDS AND OHD
18:50
M
27 °C 13 km 1.500 ft 200° 200° 5 kt METAR PTRO 140950Z 20005KT 8SM -RA FEW009 BKN015CB BKN110 OVC290 27/25 A2979 RMK CB ALQDS AND OHD
17:50
V
27 °C 21 km 11.000 ft 240° 240° 3 kt METAR PTRO 140850Z 24003KT 13SM FEW010 SCT015CB BKN110 OVC290 27/25 A2976 RMK CB ALQDS
16:50
V
28 °C 13 km 11.000 ft 230° 230° 4 kt METAR PTRO 140750Z 23004KT 8SM -RA SCT015CB BKN110 OVC290 28/26 A2975 RMK CB ALQDS AND OHD
15:50
V
28 °C 13 km 11.000 ft 230° 230° 4 kt METAR PTRO 140650Z 23004KT 8SM -RA SCT015CB BKN110 OVC290 28/26 A2974 RMK CB ALQDS AND OHD
14:50
V
29 °C 21 km 11.000 ft 190° 190° 3 kt METAR PTRO 140550Z 19003KT 13SM SCT015CB BKN110 OVC290 29/26 A2974 RMK HZ ALQDS CB S AND W-N
13:50
V
28 °C 21 km 11.000 ft 250° 250° 4 kt METAR PTRO 140450Z 25004KT 13SM SCT015CB BKN110 OVC290 28/26 A2974 RMK HZ ALQDS CB S-W
12:50
M
27 °C 21 km 1.500 ft 190° 190° 4 kt METAR PTRO 140350Z 19004KT 13SM BKN015CB BKN110 OVC290 27/25 A2976 RMK HZ ALQDS CB ALQDS
11:50
M
26 °C 10 km 1.500 ft 300° 300° 3 kt METAR PTRO 140250Z 30003KT 6SM -RA FEW009 BKN015CB OVC110 26/25 A2983 RMK CB ALQDS AND OHD
10:50
M
27 °C 6,4 km 1.500 ft 190° 190° 4 kt METAR PTRO 140150Z 19004KT 4SM RA BKN015CB OVC110 27/25 A2981 RMK CB ALQDS AND OHD
09:50
V
28 °C 16 km 12.000 ft 220° 220° 3 kt METAR PTRO 140050Z 22003KT 10SM VCSH FEW009 SCT015CB BKN120 OVC290 28/26 A2981 RMK VCSH NE-SE CB ALQDS
08:50
V
27 °C 19 km 12.000 ft 210° 210° 4 kt METAR PTRO 132350Z 21004KT 12SM FEW009 SCT015CB BKN120 OVC290 27/25 A2980 RMK HZ ALQDS CB ALQDS
07:50
V
26 °C 19 km 12.000 ft 300° 300° 3 kt METAR PTRO 132250Z 30003KT 12SM FEW009 SCT015CB OVC120 26/24 A2980 RMK CB ALQDS
06:50
V
26 °C 10 km 12.000 ft 300° 300° 3 kt METAR PTRO 132150Z 30003KT 6SM -RA FEW009 SCT015CB OVC120 26/24 A2979 RMK CB ALQDS
05:50
M
25 °C 6,4 km 1.500 ft 280° 280° 9 - 14 kt METAR PTRO 132050Z 28009G14KT 4SM RA FEW008 BKN015CB OVC110 25/24 A2977 RMK CB ALQDS AND OHD
04:50
M
26 °C 6,4 km 1.500 ft 360° 360° 0 kt METAR PTRO 131950Z 2609G16KT 4SM SHRA FEW008 BKN015CB OVC110 26/25 A2976
03:50
M
26 °C 6,4 km 1.500 ft 280° 280° 7 kt METAR PTRO 131850Z 28007KT 4SM RA FEW008 BKN015CB OVC110 26/25 A2976 RMK CB ALQDS AND OHD
03:30
M
26 °C 6,4 km 1.400 ft 290° 290° 5 kt SPECI PTRO 131830Z 29005KT 4SM SHRA FEW008 BKN014CB OVC110 26/24 A2976 RMK CB ALQDS AND OHD
03:08
M
26 °C 11 km 1.500 ft 300° 300° 5 kt SPECI PTRO 131808Z 30005KT 7SM -SHRA FEW009 BKN015CB OVC120 26/24 A2976 RMK CB ALQDS AND OHD
02:50
M
26 °C 23 km 1.600 ft 360° 360° 0 kt METAR PTRO 131750Z 00000KT 14SM FEW009 BKN016CB OVC120 26/24 A2976 RMK CB ALQDS AND OHD
01:50
M
25 °C 23 km 1.500 ft 300° 300° 8 - 14 kt METAR PTRO 131650Z 30008G14KT 14SM FEW009 BKN015CB OVC120 25/24 A2975 RMK CB ALQDS AND OHD
00:50
M
25 °C 8,0 km 1.400 ft 300° 300° 10 - 16 kt METAR PTRO 131550Z 30010G16KT 5SM RA FEW008 BKN014CB OVC110 25/23 A2976 RMK CB ALQDS AND OHD

13 juli 2024

Tijd Code Weer Temp. Zicht Plafond Wind METAR/SPECI
23:50
M
25 °C 11 km 1.400 ft 350° 350° 7 - 15 kt METAR PTRO 131450Z 35007G15KT 7SM -RA FEW008 BKN014CB OVC110 25/23 A2976 RMK CB ALQDS AND OHD
22:50
M
26 °C 11 km 1.600 ft 320° 320° 6 kt METAR PTRO 131350Z 32006KT 7SM -RA BKN016CB OVC110 26/24 A2979 RMK CB ALQDS AND OHD
21:50
M
26 °C 11 km 1.600 ft 250° 250° 9 - 15 kt METAR PTRO 131250Z 25009G15KT 7SM -SHRA BKN016CB OVC110 26/23 A2978 RMK CB ALQDS AND OHD
20:50
V
27 °C 24 km 12.000 ft 280° 280° 5 kt METAR PTRO 131150Z 28005KT 15SM SCT016CB BKN120 BKN290 27/24 A2977 RMK CB N-E-S
19:50
V
28 °C 24 km 12.000 ft 300° 300° 6 kt METAR PTRO 131050Z 30006KT 15SM SCT016CB BKN120 OVC290 28/25 A2977 RMK CB ALQDS
18:50
V
28 °C 24 km 12.000 ft 260° 260° 10 kt METAR PTRO 130950Z 26010KT 15SM SCT016 BKN120 OVC290 28/24 A2975
17:50
V
29 °C 24 km 12.000 ft 260° 260° 10 - 15 kt METAR PTRO 130850Z 26010G15KT 15SM SCT016 BKN120 OVC290 29/24 A2972
16:50
V
29 °C 21 km 13.000 ft 270° 270° 14 - 20 kt METAR PTRO 130750Z 27014G20KT 13SM FEW010 SCT017CB BKN130 OVC300 29/24 A2971 RMK HZ ALQDS CB N
15:50
V
31 °C 19 km 14.000 ft 260° 260° 14 - 20 kt METAR PTRO 130650Z 26014G20KT 12SM FEW010 SCT017CB BKN140 BKN320 31/25 A2969 RMK HZ ALQDS CB SE-SW AND NW-N
14:50
M
31 °C 19 km 1.700 ft 250° 250° 15 - 20 kt METAR PTRO 130550Z 25015G20KT 12SM FEW010 BKN017CB BKN140 OVC320 31/25 A2970 RMK HZ ALQDS CB SE-SW-NW-NE
13:50
M
32 °C 19 km 1.800 ft 250° 250° 13 - 18 kt METAR PTRO 130450Z 25013G18KT 12SM FEW010 BKN018 BKN140 OVC320 32/25 A2972 RMK HZ ALQDS
11:50
V
31 °C 19 km 14.000 ft 260° 260° 12 - 20 kt METAR PTRO 130250Z 26012G20KT 12SM FEW010 SCT017CB BKN140 OVC310 31/25 A2973 RMK HZ ALQDS CB N
10:50
V
31 °C 19 km 14.000 ft 280° 280° 14 - 21 kt METAR PTRO 130150Z 28014G21KT 12SM FEW010 SCT017CB BKN140 OVC310 31/25 A2975 RMK HZ ALQDS CB N
09:50
V
30 °C 19 km 13.000 ft 260° 260° 14 - 19 kt METAR PTRO 130050Z 26014G19KT 12SM FEW009 SCT017CB BKN130 OVC300 30/27 A2976 RMK HZ ALQDS CB NW-NE
08:50
M
29 °C 19 km 1.600 ft 260° 260° 13 kt METAR PTRO 122350Z 26013KT 12SM FEW009 BKN016CB BKN120 OVC300 29/27 A2977 RMK HZ ALQDS CB W-N-E
07:50
M
26 °C 21 km 1.400 ft 240° 240° 7 kt METAR PTRO 122250Z 24007KT 13SM FEW009 BKN014CB BKN110 OVC290 26/24 A2978 RMK CB ALQDS
06:50
M
26 °C 14 km 1.400 ft 240° 240° 6 kt METAR PTRO 122150Z 24006KT 9SM -SHRA FEW009 BKN014CB BKN110 OVC290 26/24 A2976 RMK CB ALQDS
05:50
M
26 °C 14 km 1.400 ft 220° 220° 7 kt METAR PTRO 122050Z 22007KT 9SM -SHRA BKN014CB BKN110 OVC290 26/24 A2975 RMK CB ALQDS
04:50
M
26 °C 14 km 1.400 ft 360° 360° 0 kt METAR PTRO 121950Z 00000KT 9SM -SHRA BKN014CB BKN110 OVC290 26/24 A2974 RMK CB ALQDS
03:50
M
26 °C 13 km 1.400 ft 140° 140° 5 kt METAR PTRO 121850Z 14005KT 8SM -SHRA BKN014CB BKN110 OVC290 26/24 A2972 RMK CB ALQDS
02:50
M
26 °C 13 km 1.400 ft 140° 140° 4 kt METAR PTRO 121750Z 14004KT 8SM -SHRA BKN014CB BKN110 OVC290 26/24 A2973 RMK CB ALQDS
01:50
M
26 °C 14 km 1.400 ft 360° 360° 0 kt METAR PTRO 121650Z 00000KT 9SM -SHRA BKN014CB BKN110 OVC290 26/24 A2973 RMK CB ALQDS
00:50
M
25 °C 21 km 1.400 ft 360° 360° 0 kt METAR PTRO 121550Z 00000KT 13SM BKN014CB BKN120 OVC290 25/24 A2973 RMK CB ALQDS

12 juli 2024

Tijd Code Weer Temp. Zicht Plafond Wind METAR/SPECI
23:50
M
26 °C 24 km 1.400 ft 360° 360° 0 kt METAR PTRO 121450Z 00000KT 15SM BKN014CB BKN120 OVC290 26/24 A2974 RMK CB ALQDS
22:50
M
26 °C 24 km 1.400 ft 250° 250° 3 kt METAR PTRO 121350Z 25003KT 15SM BKN014CB BKN120 BKN290 26/24 A2976 RMK CB ALQDS
21:50
M
26 °C 11 km 1.400 ft 360° 360° 0 kt METAR PTRO 121250Z 00000KT 7SM -RA BKN014CB OVC120 26/24 A2977 RMK CB ALQDS AND OHD
20:50
M
26 °C 11 km 1.400 ft 360° 360° 0 kt METAR PTRO 121150Z 00000KT 7SM -TSRA BKN014CB BKN120 OVC290 26/22 A2976 RMK OCNL LTGIC E TS E MOV N CB ALQDS AND OHD
20:38
M
26 °C 11 km 1.400 ft 070° 070° 3 kt SPECI PTRO 121138Z 07003KT 7SM -TSRA BKN014CB BKN120 OVC290 26/22 A2976 RMK LTGICCC N TS N MOV W CB ALQDS AND OHD
20:34
M
26 °C 11 km 1.400 ft 080° 080° 4 kt SPECI PTRO 121134Z 08004KT 7SM -SHRA BKN014CB BKN120 OVC290 26/23 A2976 RMK CB ALQDS AND OHD
19:50
M
27 °C 24 km 1.400 ft 030° 030° 3 kt METAR PTRO 121050Z 03003KT 15SM BKN014CB BKN120 OVC290 27/24 A2974 RMK CB ALQDS
18:50
M
28 °C 24 km 1.500 ft 360° 360° 0 kt METAR PTRO 120950Z 00000KT 15SM BKN015CB BKN120 BKN290 28/24 A2973 RMK CB SE-SW
17:50
M
29 °C 24 km 1.600 ft 290° 290° 5 kt METAR PTRO 120850Z 29005KT 15SM FEW009 BKN016CB BKN130 BKN300 29/25 A2971 RMK CB SE-S AND SW
16:50
M
30 °C 24 km 1.600 ft 360° 360° 0 kt METAR PTRO 120750Z 00000KT 15SM FEW009 BKN016CB BKN130 BKN300 30/27 A2969 RMK CB SE SW AND NW
15:50
M
29 °C 16 km 1.600 ft 280° 280° 6 kt METAR PTRO 120650Z 28006KT 10SM VCSH FEW009 BKN016CB BKN130 BKN300 29/25 A2969 RMK VCSH SW-NW CB S-W-N
14:50
M
32 °C 16 km 1.600 ft 240° 240° 6 kt METAR PTRO 120550Z 24006KT 10SM VCSH FEW010 BKN016CB BKN130 BKN310 32/26 A2968 RMK VCSH NW-N CB W-N
Wijziging doorgeven